Etusivu
METAR-TAF:

METAR-TAF

Lentoasemat :

Sindal, Tanska

Leveyspiiri: 57-30N, Pituuspiiri: 010-13E, korkeus merenpinnasta: 28 m

Tämänhetkinen sää

Tämä raportti tehtiin 2 tuntia ja 3 minuuttia sitten, kello 12.50 UTC
Tuuli 19 kn etelästä
Lämpötila 2°C
Kosteus 93%
Ilmanpaine 990 hPa
Näkyvyys: 9000 m
Hajanaisia pilviä 700 ft:n korkeudessa
Hajonneita pilviä 1300 ft:n korkeudessa

METAR: EKSN 131250Z 18019KT 9000 SCT007 BKN013 02/01 Q0990

Aika: 15:53 (14:53 UTC)

Sääennuste

Tämä raportti tehtiin 5 tuntia ja 55 minuuttia sitten, kello 08.58 UTC
Ennuste voimassa 13. päivästä klo 09 UTC - 13. päivään klo 14 UTC
Tuuli 15 kn etelästä
Näkyvyys: 8000 m
Hajonneita pilviä 1500 ft:n korkeudessa
heikkoa sadetta
Ajoittain
13. päivästä klo 09 UTC - 13. päivään klo 14 UTC
Tuuli 15 kn etelästä puuskistuen 25 kn:hen
Näkyvyys: 3000 m
Hajonneita pilviä 500 ft:n korkeudessa
sadetta

TAF: EKSN 130858Z 1309/1314 19015KT 8000 -RA BKN015 TEMPO 1309/1314 19015G25KT 3000 RA BKN005

Säähavainnot ja -ennusteet yli 4000 lentoasemalta (METAR- ja TAF-raportit).

Käytössä olevat sääasemat on merkitty karttaan keltaisilla ja punaisilla pisteillä.

Aseta hiiri pisteen päälle nähdäksesi sääaseman nimen.

Klikkaa sitten nähdäksesi säähavainnot ja -ennusteet.

Kartan vaihtaminen: klikkaa mustalla rastilla varustettuja vihreitä pisteitä, niin voit zoomata sisään; viivalla varustettua vihreää pistettä, niin voit zoomata ulos tai vihreitä nuolia, niin pääset viereisille kartoille.


METAR-TAF: